Time;durP1;ratioP1;P1;durP2;ratioP2;P2;SDS_P1;SDS_P2;PMS_P1;PMS_P2;Temp;Humidity;BMP_temperature;BMP_pressure;BME280_temperature;BME280_humidity;BME280_pressure;Samples;Min_cycle;Max_cycle;Signal;HPM_P1;HPM_P2
2021/07/28 00:02:28;;;;;;;;;;;27.00;99.90;;;;;;1826125;77;20172;-91
2021/07/28 00:04:58;;;;;;;;;;;26.90;99.90;;;;;;1836850;77;20159;-92
2021/07/28 00:07:29;;;;;;;;;;;27.00;99.90;;;;;;1826961;77;20172;-93
2021/07/28 00:09:59;;;;;;;;;;;27.00;99.90;;;;;;1824971;77;20259;-92
2021/07/28 00:12:30;;;;;;;;;;;27.10;99.90;;;;;;1822975;77;20204;-92
2021/07/28 00:15:02;;;;;;;;;;;27.10;99.90;;;;;;1827954;77;20243;-93
2021/07/28 00:17:31;;;;;;;;;;;27.10;99.90;;;;;;1832173;78;20155;-92
2021/07/28 00:20:09;;;;;;;;;;;27.20;99.90;;;;;;1834113;77;20249;-91
2021/07/28 00:25:11;;;;;;;;;;;27.20;99.90;;;;;;1834946;77;20225;-91
2021/07/28 00:27:44;;;;;;;;;;;27.30;99.90;;;;;;1883172;75;20116;-92
2021/07/28 00:30:13;;;;;;;;;;;27.40;99.90;;;;;;1874705;75;20125;-93
2021/07/28 00:32:55;;;;;;;;;;;27.40;99.90;;;;;;1891936;75;20218;-91
2021/07/28 00:35:45;;;;;;;;;;;27.50;99.90;;;;;;1881707;75;20210;-91
2021/07/28 00:38:17;;;;;;;;;;;27.50;99.90;;;;;;1880743;75;20185;-92
2021/07/28 00:40:47;;;;;;;;;;;27.50;99.90;;;;;;1839537;77;20520;-93
2021/07/28 00:43:30;;;;;;;;;;;;;;;;;;;;;
2021/07/28 00:46:15;;;;;;;;;;;27.60;99.90;;;;;;1750909;81;20147;-92
2021/07/28 00:48:46;;;;;;;;;;;27.50;99.90;;;;;;1743838;79;20251;-91
2021/07/28 00:51:48;;;;;;;;;;;27.60;99.90;;;;;;1789957;79;20244;-93
2021/07/28 00:54:13;;;;;;;;;;;27.60;99.90;;;;;;1707332;82;20269;-91
2021/07/28 00:56:46;;;;;;;;;;;27.70;99.90;;;;;;1757030;80;20805;-92
2021/07/28 00:59:17;;;;;;;;;;;27.70;99.90;;;;;;1726162;82;20466;-92
2021/07/28 01:04:59;;;;;;;;;;;27.70;99.90;;;;;;1690169;82;20510;-92
2021/07/28 01:07:11;;;;;;;;;;;27.70;99.90;;;;;;1751361;81;20260;-93
2021/07/28 01:07:31;;;;;;;;;;;27.70;99.90;;;;;;1701913;81;20271;-91
2021/07/28 01:10:14;;;;;;;;;;;27.80;99.90;;;;;;1719084;81;20308;-91
2021/07/28 01:12:47;;;;;;;;;;;27.80;99.90;;;;;;1745658;81;20265;-92
2021/07/28 01:17:50;;;;;;;;;;;27.90;99.90;;;;;;1789687;78;20197;-92
2021/07/28 01:20:21;;;;;;;;;;;27.90;99.90;;;;;;1838283;77;20203;-90
2021/07/28 01:22:55;;;;;;;;;;;28.00;99.70;;;;;;1831477;77;20127;-90
2021/07/28 01:25:25;;;;;;;;;;;28.00;99.20;;;;;;1885828;75;20237;-90
2021/07/28 01:27:55;;;;;;;;;;;28.00;99.40;;;;;;1877024;75;20179;-92
2021/07/28 01:30:26;;;;;;;;;;;28.10;99.30;;;;;;1874884;75;20158;-93
2021/07/28 01:32:56;;;;;;;;;;;28.10;99.40;;;;;;1877157;75;20144;-91
2021/07/28 01:35:38;;;;;;;;;;;28.20;98.90;;;;;;1878417;75;20154;-92
2021/07/28 01:38:11;;;;;;;;;;;28.30;99.00;;;;;;1871680;75;20397;-90
2021/07/28 01:40:40;;;;;;;;;;;28.40;98.90;;;;;;1886148;74;20126;-93
2021/07/28 01:43:14;;;;;;;;;;;28.40;98.50;;;;;;1865574;75;20179;-92
2021/07/28 01:45:45;;;;;;;;;;;28.50;98.60;;;;;;1878328;75;20253;-91
2021/07/28 01:48:15;;;;;;;;;;;28.60;98.40;;;;;;1879868;75;20225;-92
2021/07/28 01:50:46;;;;;;;;;;;28.80;98.20;;;;;;1875122;75;20151;-89
2021/07/28 01:53:18;;;;;;;;;;;28.90;98.00;;;;;;1872792;75;20159;-89
2021/07/28 01:55:51;;;;;;;;;;;29.00;97.70;;;;;;1876599;74;20878;-88
2021/07/28 01:58:25;;;;;;;;;;;29.10;97.20;;;;;;1869421;74;20185;-90
2021/07/28 02:00:59;;;;;;;;;;;29.20;96.90;;;;;;1877798;75;20250;-90
2021/07/28 02:03:32;;;;;;;;;;;29.20;96.70;;;;;;1881901;75;20141;-90
2021/07/28 02:06:02;;;;;;;;;;;29.20;96.30;;;;;;1881749;75;20123;-92
2021/07/28 02:08:32;;;;;;;;;;;29.30;96.50;;;;;;1884070;75;20093;-91
2021/07/28 02:11:02;;;;;;;;;;;29.40;96.50;;;;;;1869734;75;20257;-91
2021/07/28 02:13:43;;;;;;;;;;;29.40;96.20;;;;;;1841219;75;20200;-90
2021/07/28 02:16:18;;;;;;;;;;;29.60;96.00;;;;;;1875012;75;20209;-90
2021/07/28 02:18:48;;;;;;;;;;;29.80;95.70;;;;;;1869271;75;20195;-89
2021/07/28 02:21:18;;;;;;;;;;;29.90;95.00;;;;;;1868872;75;20169;-92
2021/07/28 02:23:52;;;;;;;;;;;30.10;94.70;;;;;;1866301;75;20188;-90
2021/07/28 02:26:24;;;;;;;;;;;30.20;94.20;;;;;;1867852;75;20458;-88
2021/07/28 02:28:55;;;;;;;;;;;30.30;94.00;;;;;;1881697;75;20208;-93
2021/07/28 02:31:25;;;;;;;;;;;30.40;93.80;;;;;;1895751;75;20249;-89
2021/07/28 02:34:01;;;;;;;;;;;30.60;93.70;;;;;;1877379;75;20246;-92
2021/07/28 02:36:32;;;;;;;;;;;30.70;93.20;;;;;;1872847;75;20210;-89
2021/07/28 02:39:11;;;;;;;;;;;30.80;92.90;;;;;;1880283;75;20525;-91
2021/07/28 02:41:46;;;;;;;;;;;30.90;92.80;;;;;;1875555;75;20178;-89
2021/07/28 02:44:16;;;;;;;;;;;30.90;92.60;;;;;;1881340;75;20748;-92
2021/07/28 02:46:49;;;;;;;;;;;30.90;92.90;;;;;;1885647;75;20218;-88
2021/07/28 02:49:20;;;;;;;;;;;30.90;92.30;;;;;;1880117;75;20535;-87
2021/07/28 02:52:23;;;;;;;;;;;31.00;92.50;;;;;;1884424;75;20262;-89
2021/07/28 02:55:08;;;;;;;;;;;31.10;92.40;;;;;;1854268;76;20232;-92
2021/07/28 02:57:45;;;;;;;;;;;31.20;91.50;;;;;;1856849;74;20182;-89
2021/07/28 03:00:29;;;;;;;;;;;31.30;91.20;;;;;;1885538;75;20186;-91
2021/07/28 03:03:21;;;;;;;;;;;31.30;90.70;;;;;;1870823;73;20159;-87
2021/07/28 03:05:51;;;;;;;;;;;31.30;91.00;;;;;;1890649;75;20214;-89
2021/07/28 03:08:33;;;;;;;;;;;31.40;90.80;;;;;;1887706;74;20085;-88
2021/07/28 03:11:08;;;;;;;;;;;31.50;90.20;;;;;;1879340;75;20275;-89
2021/07/28 03:13:49;;;;;;;;;;;31.50;89.70;;;;;;1881750;74;20230;-91
2021/07/28 03:19:36;;;;;;;;;;;31.60;89.70;;;;;;1816057;77;20583;-92
2021/07/28 03:22:06;;;;;;;;;;;31.60;88.80;;;;;;1819264;77;20578;-90
2021/07/28 03:24:36;;;;;;;;;;;31.70;87.40;;;;;;1819459;77;20187;-90
2021/07/28 03:27:11;;;;;;;;;;;31.70;88.00;;;;;;1740636;81;20262;-90
2021/07/28 03:29:44;;;;;;;;;;;31.70;87.50;;;;;;1771812;79;20287;-88
2021/07/28 03:32:14;;;;;;;;;;;31.70;88.30;;;;;;1727753;81;20308;-89
2021/07/28 03:34:44;;;;;;;;;;;31.80;87.30;;;;;;1770264;79;20586;-90
2021/07/28 03:37:13;;;;;;;;;;;31.80;86.90;;;;;;1772955;79;20191;-89
2021/07/28 03:39:43;;;;;;;;;;;31.80;87.40;;;;;;1775192;79;20306;-84
2021/07/28 03:42:14;;;;;;;;;;;31.90;86.90;;;;;;1759708;79;20181;-89
2021/07/28 03:44:43;;;;;;;;;;;32.00;85.30;;;;;;1764143;79;20153;-90
2021/07/28 03:47:13;;;;;;;;;;;32.10;85.90;;;;;;1772767;79;20240;-83
2021/07/28 03:49:42;;;;;;;;;;;32.10;87.20;;;;;;1771804;79;20247;-84
2021/07/28 03:52:18;;;;;;;;;;;32.10;88.00;;;;;;1773354;79;20264;-87
2021/07/28 03:54:46;;;;;;;;;;;32.10;87.90;;;;;;1790098;76;20173;-86
2021/07/28 03:57:16;;;;;;;;;;;32.00;89.00;;;;;;1861736;76;20220;-87
2021/07/28 03:59:45;;;;;;;;;;;32.10;89.00;;;;;;1835685;77;20490;-86
2021/07/28 04:02:24;;;;;;;;;;;31.90;87.60;;;;;;1834355;77;20305;-88
2021/07/28 04:04:54;;;;;;;;;;;31.80;88.50;;;;;;1830683;77;20243;-86
2021/07/28 04:07:24;;;;;;;;;;;31.70;88.40;;;;;;1839030;77;20500;-83
2021/07/28 04:09:59;;;;;;;;;;;31.70;87.80;;;;;;1847407;76;20255;-81
2021/07/28 04:12:27;;;;;;;;;;;31.60;88.80;;;;;;1852333;76;20224;-86
2021/07/28 04:14:57;;;;;;;;;;;31.60;87.40;;;;;;1888513;75;20252;-87
2021/07/28 04:17:27;;;;;;;;;;;31.70;86.40;;;;;;1879249;75;20244;-87
2021/07/28 04:20:06;;;;;;;;;;;31.60;86.90;;;;;;1885918;75;20229;-86
2021/07/28 04:22:37;;;;;;;;;;;31.70;87.60;;;;;;1878194;75;20223;-85
2021/07/28 04:25:07;;;;;;;;;;;31.70;87.70;;;;;;1880177;75;20198;-86
2021/07/28 04:27:40;;;;;;;;;;;31.70;88.10;;;;;;1882068;74;20530;-86
2021/07/28 04:30:10;;;;;;;;;;;31.80;89.40;;;;;;1882051;75;20161;-86
2021/07/28 04:32:45;;;;;;;;;;;31.70;89.10;;;;;;1839133;76;20170;-86
2021/07/28 04:35:16;;;;;;;;;;;31.80;89.40;;;;;;1837348;76;20585;-84
2021/07/28 04:37:48;;;;;;;;;;;31.90;89.50;;;;;;1848422;76;20256;-88
2021/07/28 04:40:18;;;;;;;;;;;32.10;87.40;;;;;;1804832;78;20241;-86
2021/07/28 04:42:47;;;;;;;;;;;32.40;84.30;;;;;;1846995;76;20691;-87
2021/07/28 04:45:18;;;;;;;;;;;32.40;82.70;;;;;;1891296;75;20205;-87
2021/07/28 04:47:47;;;;;;;;;;;32.40;82.00;;;;;;1889141;75;20226;-87
2021/07/28 04:50:20;;;;;;;;;;;32.50;82.30;;;;;;1887211;75;20391;-89
2021/07/28 04:52:51;;;;;;;;;;;32.60;82.50;;;;;;1874954;75;20165;-87
2021/07/28 04:55:28;;;;;;;;;;;32.70;81.50;;;;;;1877070;75;20165;-86
2021/07/28 04:58:02;;;;;;;;;;;32.90;81.50;;;;;;1880266;75;20192;-89
2021/07/28 05:00:32;;;;;;;;;;;32.80;81.60;;;;;;1879336;75;20231;-88
2021/07/28 05:03:01;;;;;;;;;;;32.70;82.30;;;;;;1878926;75;20482;-87
2021/07/28 05:05:34;;;;;;;;;;;32.60;81.80;;;;;;1878457;75;20164;-88
2021/07/28 05:08:07;;;;;;;;;;;32.40;82.20;;;;;;1877360;75;20355;-86
2021/07/28 05:10:42;;;;;;;;;;;32.30;83.10;;;;;;1875503;75;20187;-87
2021/07/28 05:13:13;;;;;;;;;;;32.10;83.20;;;;;;1879678;75;20157;-86
2021/07/28 05:15:47;;;;;;;;;;;31.90;84.30;;;;;;1881045;75;20194;-86
2021/07/28 05:18:18;;;;;;;;;;;31.80;86.70;;;;;;1878196;75;20220;-86
2021/07/28 05:20:52;;;;;;;;;;;31.70;86.00;;;;;;1811840;78;20315;-86
2021/07/28 05:23:27;;;;;;;;;;;31.60;86.60;;;;;;1808004;78;20224;-88
2021/07/28 05:26:01;;;;;;;;;;;31.50;86.20;;;;;;1803658;78;20298;-86
2021/07/28 05:28:29;;;;;;;;;;;31.40;86.50;;;;;;1769282;79;20318;-87
2021/07/28 05:30:59;;;;;;;;;;;31.30;87.80;;;;;;1782153;79;20259;-85
2021/07/28 05:33:28;;;;;;;;;;;31.30;87.30;;;;;;1786768;79;20566;-82
2021/07/28 05:35:58;;;;;;;;;;;31.40;86.90;;;;;;1788665;79;20215;-88
2021/07/28 05:38:27;;;;;;;;;;;31.50;86.60;;;;;;1785544;79;20357;-87
2021/07/28 05:40:57;;;;;;;;;;;31.50;86.30;;;;;;1781698;79;20239;-89
2021/07/28 05:43:31;;;;;;;;;;;31.60;86.20;;;;;;1746435;81;20290;-87
2021/07/28 05:46:00;;;;;;;;;;;31.60;86.30;;;;;;1759191;79;20726;-87
2021/07/28 05:48:31;;;;;;;;;;;31.60;86.40;;;;;;1783690;79;20501;-88
2021/07/28 05:51:01;;;;;;;;;;;31.60;86.70;;;;;;1720899;82;20154;-87
2021/07/28 05:53:34;;;;;;;;;;;31.60;86.80;;;;;;1714259;82;20197;-87
2021/07/28 05:56:03;;;;;;;;;;;31.60;87.00;;;;;;1740511;81;20540;-85
2021/07/28 05:58:33;;;;;;;;;;;31.60;86.50;;;;;;1777970;78;20227;-85
2021/07/28 06:01:05;;;;;;;;;;;31.70;87.80;;;;;;1816847;78;20247;-87
2021/07/28 06:03:36;;;;;;;;;;;31.80;86.50;;;;;;1780461;79;20174;-89
2021/07/28 06:06:06;;;;;;;;;;;32.00;85.80;;;;;;1808534;78;20549;-86
2021/07/28 06:08:36;;;;;;;;;;;32.20;84.80;;;;;;1815317;78;20221;-88
2021/07/28 06:11:06;;;;;;;;;;;32.30;85.10;;;;;;1806194;78;20236;-88
2021/07/28 06:13:35;;;;;;;;;;;32.40;83.10;;;;;;1807532;78;20217;-87
2021/07/28 06:16:05;;;;;;;;;;;32.40;82.70;;;;;;1809967;78;20227;-88
2021/07/28 06:18:35;;;;;;;;;;;32.60;83.30;;;;;;1848387;76;20185;-87
2021/07/28 06:21:05;;;;;;;;;;;32.70;81.20;;;;;;1845844;76;20213;-87
2021/07/28 06:23:34;;;;;;;;;;;32.70;81.50;;;;;;1849861;76;20217;-88
2021/07/28 06:26:04;;;;;;;;;;;32.70;82.50;;;;;;1854695;76;20213;-86
2021/07/28 06:28:33;;;;;;;;;;;32.80;81.30;;;;;;1855255;75;20199;-85
2021/07/28 06:31:03;;;;;;;;;;;32.90;80.20;;;;;;1871718;76;20264;-87
2021/07/28 06:33:33;;;;;;;;;;;33.00;81.20;;;;;;1865817;76;20126;-87
2021/07/28 06:36:02;;;;;;;;;;;33.00;80.80;;;;;;1861349;76;20188;-88
2021/07/28 06:38:32;;;;;;;;;;;32.90;80.20;;;;;;1867554;76;20177;-87
2021/07/28 06:41:01;;;;;;;;;;;32.90;82.10;;;;;;1869750;76;20163;-87
2021/07/28 06:43:31;;;;;;;;;;;32.90;82.50;;;;;;1860587;76;20258;-85
2021/07/28 06:46:05;;;;;;;;;;;32.70;82.60;;;;;;1864177;76;20232;-86
2021/07/28 06:48:34;;;;;;;;;;;32.60;81.70;;;;;;1860971;76;20523;-87
2021/07/28 06:51:04;;;;;;;;;;;32.50;80.40;;;;;;1798733;79;20209;-88
2021/07/28 06:53:34;;;;;;;;;;;32.40;82.00;;;;;;1822997;78;20180;-86
2021/07/28 06:56:07;;;;;;;;;;;32.40;82.70;;;;;;1828951;77;20193;-90
2021/07/28 06:58:43;;;;;;;;;;;32.40;83.80;;;;;;1823909;78;20252;-88
2021/07/28 07:01:26;;;;;;;;;;;32.40;84.10;;;;;;1821228;77;20214;-85
2021/07/28 07:03:58;;;;;;;;;;;32.60;82.70;;;;;;1821756;77;20180;-89
2021/07/28 07:09:54;;;;;;;;;;;32.80;81.20;;;;;;1762152;80;20225;-89
2021/07/28 07:12:36;;;;;;;;;;;32.80;80.60;;;;;;1762818;80;20196;-88
2021/07/28 07:15:10;;;;;;;;;;;32.80;79.70;;;;;;1763010;80;20188;-86
2021/07/28 07:17:57;;;;;;;;;;;32.70;80.00;;;;;;1739240;81;20243;-87
2021/07/28 07:23:35;;;;;;;;;;;32.40;80.60;;;;;;1593738;88;20633;-88
2021/07/28 07:26:07;;;;;;;;;;;32.40;82.00;;;;;;1595251;88;20249;-89
2021/07/28 07:28:37;;;;;;;;;;;32.50;81.30;;;;;;1604125;87;20302;-88
2021/07/28 07:31:22;;;;;;;;;;;32.60;81.00;;;;;;1612770;88;20258;-88
2021/07/28 07:33:56;;;;;;;;;;;32.70;80.40;;;;;;1584279;90;20163;-88
2021/07/28 07:36:27;;;;;;;;;;;32.70;81.10;;;;;;1597555;88;20456;-87
2021/07/28 07:45:14;;;;;;;;;;;32.80;81.10;;;;;;1754319;80;20149;-88
2021/07/28 07:47:54;;;;;;;;;;;32.80;82.30;;;;;;1710182;82;20211;-87
2021/07/28 07:50:26;;;;;;;;;;;32.70;82.20;;;;;;1712144;82;20273;-91
2021/07/28 07:53:02;;;;;;;;;;;32.60;83.30;;;;;;1716198;82;20552;-93
2021/07/28 07:55:36;;;;;;;;;;;32.60;82.60;;;;;;1694431;83;20239;-86
2021/07/28 07:58:16;;;;;;;;;;;32.60;82.10;;;;;;1718698;82;20344;-87
2021/07/28 08:00:42;;;;;;;;;;;32.60;82.20;;;;;;1712242;82;20288;-88
2021/07/28 08:03:16;;;;;;;;;;;32.60;83.20;;;;;;1711751;82;20224;-86
2021/07/28 08:05:50;;;;;;;;;;;32.60;82.10;;;;;;1685086;83;20331;-88
2021/07/28 08:08:17;;;;;;;;;;;32.60;83.10;;;;;;1681400;84;20303;-87
2021/07/28 08:11:18;;;;;;;;;;;32.70;82.90;;;;;;1722998;82;20253;-85
2021/07/28 08:13:59;;;;;;;;;;;32.70;81.50;;;;;;1690628;83;20242;-86
2021/07/28 08:16:30;;;;;;;;;;;32.70;80.90;;;;;;1716624;82;20480;-88
2021/07/28 08:19:12;;;;;;;;;;;;;;;;;;;;;
2021/07/28 08:21:52;;;;;;;;;;;32.50;80.40;;;;;;1664914;81;20271;-87
2021/07/28 08:24:21;;;;;;;;;;;32.50;79.60;;;;;;1719000;81;20326;-85
2021/07/28 08:26:54;;;;;;;;;;;32.40;79.50;;;;;;1727178;81;20194;-82
2021/07/28 08:29:35;;;;;;;;;;;;;;;;;;;;;
2021/07/28 08:32:23;;;;;;;;;;;32.50;78.70;;;;;;1702336;83;20234;-88
2021/07/28 08:34:55;;;;;;;;;;;32.40;79.10;;;;;;1737879;81;20191;-85
2021/07/28 08:37:25;;;;;;;;;;;32.40;78.60;;;;;;1722794;81;20284;-83
2021/07/28 08:39:59;;;;;;;;;;;32.40;79.00;;;;;;1722917;81;20273;-84
2021/07/28 08:42:29;;;;;;;;;;;32.30;77.60;;;;;;1636993;86;20284;-85
2021/07/28 08:44:59;;;;;;;;;;;32.40;78.10;;;;;;1653001;85;20498;-85
2021/07/28 08:47:36;;;;;;;;;;;32.30;78.70;;;;;;1677304;84;20186;-88
2021/07/28 08:50:07;;;;;;;;;;;32.40;78.50;;;;;;1693991;83;20530;-84
2021/07/28 08:53:08;;;;;;;;;;;32.40;78.20;;;;;;1683497;83;20267;-86
2021/07/28 08:55:41;;;;;;;;;;;32.40;78.40;;;;;;1681048;84;20209;-86
2021/07/28 08:58:12;;;;;;;;;;;32.50;78.10;;;;;;1705473;77;20227;-86
2021/07/28 09:00:43;;;;;;;;;;;32.50;78.30;;;;;;1836454;76;20133;-87
2021/07/28 09:03:13;;;;;;;;;;;32.50;79.00;;;;;;1816478;78;20226;-88
2021/07/28 09:05:44;;;;;;;;;;;32.40;78.30;;;;;;1831638;77;20218;-88
2021/07/28 09:08:15;;;;;;;;;;;32.40;78.40;;;;;;1827023;78;20462;-88
2021/07/28 09:10:46;;;;;;;;;;;32.40;78.30;;;;;;1802581;78;20252;-89
2021/07/28 09:13:15;;;;;;;;;;;32.50;76.60;;;;;;1827017;78;20203;-87
2021/07/28 09:15:46;;;;;;;;;;;32.60;75.00;;;;;;1826592;77;20243;-86
2021/07/28 09:18:16;;;;;;;;;;;32.70;74.50;;;;;;1825356;77;20304;-87
2021/07/28 09:20:46;;;;;;;;;;;32.70;73.90;;;;;;1877194;75;20446;-86
2021/07/28 09:23:15;;;;;;;;;;;32.70;74.80;;;;;;1882791;75;20217;-87
2021/07/28 09:25:52;;;;;;;;;;;32.70;74.20;;;;;;1878346;75;20206;-86
2021/07/28 09:28:17;;;;;;;;;;;32.70;73.00;;;;;;1874518;76;20241;-87
2021/07/28 09:30:47;;;;;;;;;;;32.80;71.40;;;;;;1879230;75;20159;-86
2021/07/28 09:33:19;;;;;;;;;;;32.80;71.00;;;;;;1880190;76;20468;-87
2021/07/28 09:35:54;;;;;;;;;;;32.90;70.90;;;;;;1878376;75;20162;-86
2021/07/28 09:38:26;;;;;;;;;;;32.90;71.00;;;;;;1882393;70;20136;-88
2021/07/28 09:41:01;;;;;;;;;;;33.00;70.50;;;;;;1838012;72;20104;-89
2021/07/28 09:43:31;;;;;;;;;;;32.90;70.90;;;;;;1838195;74;20190;-86
2021/07/28 09:46:00;;;;;;;;;;;32.90;74.00;;;;;;1993527;70;20155;-85
2021/07/28 09:48:32;;;;;;;;;;;32.90;74.80;;;;;;1984056;69;20227;-86
2021/07/28 09:51:04;;;;;;;;;;;32.80;75.70;;;;;;1899664;70;20145;-84
2021/07/28 09:53:36;;;;;;;;;;;32.70;76.40;;;;;;1911913;72;20165;-86
2021/07/28 09:56:16;;;;;;;;;;;32.60;76.90;;;;;;1940273;70;21613;31
2021/07/28 09:58:49;;;;;;;;;;;32.40;78.40;;;;;;1892596;71;20149;-92
2021/07/28 10:01:19;;;;;;;;;;;32.40;78.10;;;;;;1860437;75;20402;-87
2021/07/28 10:03:51;;;;;;;;;;;32.30;78.90;;;;;;1874985;76;20126;-88
2021/07/28 10:06:22;;;;;;;;;;;32.20;79.30;;;;;;1858235;76;20234;-92
2021/07/28 10:08:58;;;;;;;;;;;32.20;79.30;;;;;;1859716;77;20552;-91
2021/07/28 10:11:31;;;;;;;;;;;32.20;79.80;;;;;;1863644;75;20338;-86
2021/07/28 10:14:04;;;;;;;;;;;32.10;80.00;;;;;;1797813;80;20154;-89
2021/07/28 10:16:34;;;;;;;;;;;32.20;80.20;;;;;;1795176;77;20140;-88
2021/07/28 10:19:05;;;;;;;;;;;32.10;80.20;;;;;;1815782;78;20233;-87
2021/07/28 10:21:37;;;;;;;;;;;32.10;80.60;;;;;;1824787;77;20277;-87
2021/07/28 10:24:09;;;;;;;;;;;32.10;80.30;;;;;;1828642;77;20268;-87
2021/07/28 10:26:40;;;;;;;;;;;32.10;80.60;;;;;;1836500;77;20510;-92
2021/07/28 10:29:14;;;;;;;;;;;32.10;80.90;;;;;;1872391;75;20217;-85
2021/07/28 10:31:42;;;;;;;;;;;32.10;80.60;;;;;;1879614;75;20421;-89
2021/07/28 10:34:13;;;;;;;;;;;32.10;80.00;;;;;;1876539;75;20275;-89
2021/07/28 10:36:44;;;;;;;;;;;32.10;80.40;;;;;;1886416;71;20149;-87
2021/07/28 10:39:19;;;;;;;;;;;32.00;78.30;;;;;;1897975;74;20260;-91
2021/07/28 10:42:09;;;;;;;;;;;32.10;76.20;;;;;;1855320;75;20235;-90
2021/07/28 10:44:43;;;;;;;;;;;32.10;76.00;;;;;;1831481;78;20170;-91
2021/07/28 10:47:16;;;;;;;;;;;32.10;76.20;;;;;;1844824;76;20475;-90
2021/07/28 10:49:47;;;;;;;;;;;32.10;77.60;;;;;;1842068;76;20207;-91
2021/07/28 10:52:18;;;;;;;;;;;32.10;76.90;;;;;;1843837;76;20265;-92
2021/07/28 10:54:50;;;;;;;;;;;32.10;76.70;;;;;;1843969;76;20199;-93
2021/07/28 10:57:20;;;;;;;;;;;32.00;77.50;;;;;;1841514;77;20273;-92
2021/07/28 10:59:53;;;;;;;;;;;32.00;77.70;;;;;;1848081;77;20138;-90
2021/07/28 11:02:27;;;;;;;;;;;32.00;78.10;;;;;;1847602;77;20199;-94
2021/07/28 11:04:59;;;;;;;;;;;31.90;78.80;;;;;;1840270;77;20267;-87
2021/07/28 11:07:30;;;;;;;;;;;31.90;79.50;;;;;;1832536;77;20265;-90
2021/07/28 11:10:01;;;;;;;;;;;31.80;80.00;;;;;;1836730;76;20490;-86
2021/07/28 11:12:34;;;;;;;;;;;31.80;80.30;;;;;;1835938;77;20220;-86
2021/07/28 11:15:04;;;;;;;;;;;31.80;79.70;;;;;;1837915;76;20247;-85
2021/07/28 11:17:35;;;;;;;;;;;31.80;79.90;;;;;;1834731;76;20238;-89
2021/07/28 11:20:09;;;;;;;;;;;31.80;79.90;;;;;;1851983;76;20167;-87
2021/07/28 11:22:39;;;;;;;;;;;31.70;79.40;;;;;;1852221;76;20220;-87
2021/07/28 11:25:08;;;;;;;;;;;31.80;79.10;;;;;;1857925;76;20269;-88
2021/07/28 11:27:38;;;;;;;;;;;31.70;78.40;;;;;;1840213;76;20241;-88
2021/07/28 11:30:09;;;;;;;;;;;31.80;78.70;;;;;;1857916;76;20424;-90
2021/07/28 11:32:39;;;;;;;;;;;31.70;79.80;;;;;;1839195;76;20302;-84
2021/07/28 11:35:09;;;;;;;;;;;31.60;80.40;;;;;;1846701;76;20231;-87
2021/07/28 11:37:40;;;;;;;;;;;31.60;80.70;;;;;;1873752;75;20378;-85
2021/07/28 11:40:10;;;;;;;;;;;31.50;81.10;;;;;;1876326;75;20196;-89
2021/07/28 11:42:40;;;;;;;;;;;31.50;81.40;;;;;;1865224;75;20168;-87
2021/07/28 11:45:09;;;;;;;;;;;31.40;81.00;;;;;;1864954;75;20158;-84
2021/07/28 11:47:41;;;;;;;;;;;31.40;81.60;;;;;;1868812;75;20172;-89
2021/07/28 11:53:07;;;;;;;;;;;31.30;82.20;;;;;;1767156;79;20245;-83
2021/07/28 11:55:36;;;;;;;;;;;31.20;82.40;;;;;;1838348;76;20213;-82
2021/07/28 11:58:06;;;;;;;;;;;31.20;82.70;;;;;;1811965;77;20202;-83
2021/07/28 12:00:39;;;;;;;;;;;31.10;82.50;;;;;;1806569;77;20200;-83
2021/07/28 12:03:13;;;;;;;;;;;31.10;82.90;;;;;;1808512;74;20557;-87
2021/07/28 12:05:45;;;;;;;;;;;31.10;83.10;;;;;;1814165;78;20645;-84
2021/07/28 12:08:15;;;;;;;;;;;31.00;83.20;;;;;;1799486;79;20239;-86
2021/07/28 12:10:45;;;;;;;;;;;31.00;83.60;;;;;;1796957;77;20220;-87
2021/07/28 12:13:16;;;;;;;;;;;31.00;84.10;;;;;;1800948;78;20267;-91
2021/07/28 12:15:46;;;;;;;;;;;31.00;84.40;;;;;;1800027;79;20421;-88
2021/07/28 12:18:16;;;;;;;;;;;30.90;84.80;;;;;;1807613;79;20157;-91
2021/07/28 12:20:47;;;;;;;;;;;30.80;85.00;;;;;;1800937;78;20217;-89
2021/07/28 12:23:17;;;;;;;;;;;30.80;85.10;;;;;;1813420;78;20511;-88
2021/07/28 12:25:56;;;;;;;;;;;30.80;85.80;;;;;;1826216;77;20346;-89
2021/07/28 12:28:23;;;;;;;;;;;30.70;85.90;;;;;;1806931;78;20205;-90
2021/07/28 12:30:54;;;;;;;;;;;30.70;86.20;;;;;;1858022;75;20532;-92
2021/07/28 12:33:24;;;;;;;;;;;30.70;86.30;;;;;;1866796;75;20138;-88
2021/07/28 12:35:58;;;;;;;;;;;30.60;86.60;;;;;;1837460;76;20186;-89
2021/07/28 12:38:27;;;;;;;;;;;30.50;86.70;;;;;;1865918;75;20219;-90
2021/07/28 12:40:57;;;;;;;;;;;30.50;87.10;;;;;;1855727;76;20210;-91
2021/07/28 12:43:28;;;;;;;;;;;30.50;87.50;;;;;;1869703;76;20120;-91
2021/07/28 12:46:04;;;;;;;;;;;30.40;87.60;;;;;;1871919;76;20153;-85
2021/07/28 12:48:31;;;;;;;;;;;30.40;87.80;;;;;;1870503;75;20596;-87
2021/07/28 12:51:02;;;;;;;;;;;30.30;87.90;;;;;;1862454;76;20206;-87
2021/07/28 12:53:32;;;;;;;;;;;30.30;88.20;;;;;;1865329;75;20235;-92
2021/07/28 12:56:02;;;;;;;;;;;30.20;88.30;;;;;;1863998;75;20206;-90
2021/07/28 12:58:32;;;;;;;;;;;30.20;88.60;;;;;;1857683;75;20194;-91
2021/07/28 13:01:06;;;;;;;;;;;30.20;88.80;;;;;;1870640;75;20274;-89
2021/07/28 13:03:36;;;;;;;;;;;30.10;88.80;;;;;;1864190;75;20416;-91
2021/07/28 13:06:09;;;;;;;;;;;30.10;89.00;;;;;;1860918;75;20516;-87
2021/07/28 13:08:38;;;;;;;;;;;30.10;89.50;;;;;;1860733;76;20728;-92
2021/07/28 13:11:07;;;;;;;;;;;30.10;89.30;;;;;;1874673;75;20221;-92
2021/07/28 13:13:38;;;;;;;;;;;30.10;89.40;;;;;;1856223;76;20203;-88
2021/07/28 13:16:11;;;;;;;;;;;30.10;89.30;;;;;;1868248;75;20141;-89
2021/07/28 13:18:57;;;;;;;;;;;30.00;89.50;;;;;;1867187;76;20161;-87
2021/07/28 13:21:27;;;;;;;;;;;30.00;89.50;;;;;;1867572;75;20204;-90
2021/07/28 13:23:56;;;;;;;;;;;30.00;89.60;;;;;;1871393;75;20203;-87
2021/07/28 13:26:26;;;;;;;;;;;30.00;89.70;;;;;;1860832;75;20228;-88
2021/07/28 13:28:59;;;;;;;;;;;29.90;89.70;;;;;;1861818;75;20523;-87
2021/07/28 13:31:31;;;;;;;;;;;29.90;89.70;;;;;;1865407;75;20195;-89
2021/07/28 13:34:01;;;;;;;;;;;29.90;89.90;;;;;;1861054;75;20196;-85
2021/07/28 13:36:36;;;;;;;;;;;29.80;89.90;;;;;;1879180;75;20184;-85
2021/07/28 13:39:06;;;;;;;;;;;29.80;90.00;;;;;;1863813;75;20196;-92
2021/07/28 13:41:37;;;;;;;;;;;29.80;90.00;;;;;;1857399;76;20162;-87
2021/07/28 13:44:07;;;;;;;;;;;29.80;90.10;;;;;;1861751;75;20240;-90
2021/07/28 13:46:36;;;;;;;;;;;29.80;90.10;;;;;;1871791;74;20621;-87
2021/07/28 13:49:08;;;;;;;;;;;29.80;90.10;;;;;;1918577;74;20422;-87
2021/07/28 13:51:38;;;;;;;;;;;29.70;90.00;;;;;;1881552;74;20191;-89
2021/07/28 13:54:08;;;;;;;;;;;29.70;90.20;;;;;;1907329;74;20252;-89
2021/07/28 13:56:39;;;;;;;;;;;29.70;90.30;;;;;;1904668;74;20131;-87
2021/07/28 13:59:13;;;;;;;;;;;29.70;90.40;;;;;;1911974;74;20159;-86
2021/07/28 14:02:22;;;;;;;;;;;;;;;;;;;;;
2021/07/28 14:05:14;;;;;;;;;;;29.70;90.30;;;;;;1804578;78;20204;-89
2021/07/28 14:07:43;;;;;;;;;;;29.60;90.20;;;;;;1877679;74;20129;-88
2021/07/28 14:10:15;;;;;;;;;;;29.60;90.20;;;;;;1904889;74;20471;-88
2021/07/28 14:12:47;;;;;;;;;;;29.60;90.20;;;;;;1884887;75;20177;-86
2021/07/28 14:15:17;;;;;;;;;;;29.60;90.30;;;;;;1883653;75;20209;-88
2021/07/28 14:17:50;;;;;;;;;;;29.50;90.20;;;;;;1893661;75;20223;-90
2021/07/28 14:20:23;;;;;;;;;;;29.50;90.20;;;;;;1882001;75;20220;-88
2021/07/28 14:22:51;;;;;;;;;;;29.50;90.00;;;;;;1898278;72;20207;-90
2021/07/28 14:25:24;;;;;;;;;;;29.50;89.90;;;;;;1885698;73;20155;-93
2021/07/28 14:27:54;;;;;;;;;;;29.50;89.40;;;;;;1905617;74;20265;-94
2021/07/28 14:30:24;;;;;;;;;;;29.50;89.40;;;;;;1889108;74;20483;-92
2021/07/28 14:32:53;;;;;;;;;;;29.50;88.90;;;;;;1908115;74;20392;-93
2021/07/28 14:35:23;;;;;;;;;;;29.50;89.00;;;;;;1891101;74;20171;-94
2021/07/28 14:37:55;;;;;;;;;;;29.50;89.00;;;;;;1903419;74;20236;-92
2021/07/28 14:40:24;;;;;;;;;;;29.50;89.00;;;;;;1886123;74;20221;-94
2021/07/28 14:42:58;;;;;;;;;;;29.50;88.60;;;;;;1899733;74;20191;-93
2021/07/28 14:45:27;;;;;;;;;;;29.50;88.50;;;;;;1895454;75;20399;-93
2021/07/28 14:47:59;;;;;;;;;;;29.50;88.60;;;;;;1898393;75;20227;-93
2021/07/28 14:50:29;;;;;;;;;;;29.40;88.30;;;;;;1906792;75;20158;-91
2021/07/28 14:53:00;;;;;;;;;;;29.50;88.40;;;;;;1897220;75;20223;-94
2021/07/28 14:55:30;;;;;;;;;;;29.40;88.50;;;;;;1893624;75;20222;-93
2021/07/28 14:58:00;;;;;;;;;;;29.40;88.40;;;;;;1882007;75;20246;-94
2021/07/28 15:00:31;;;;;;;;;;;29.40;88.60;;;;;;1883489;75;20183;-93
2021/07/28 15:03:02;;;;;;;;;;;29.40;89.60;;;;;;1867842;76;20128;-93
2021/07/28 15:05:32;;;;;;;;;;;29.40;88.80;;;;;;1848482;76;20455;-93
2021/07/28 15:08:03;;;;;;;;;;;29.30;89.00;;;;;;1826386;76;20168;-95
2021/07/28 15:10:38;;;;;;;;;;;29.30;89.20;;;;;;1817264;77;20249;-93
2021/07/28 15:13:13;;;;;;;;;;;29.30;89.20;;;;;;1847753;76;20490;-93
2021/07/28 15:15:46;;;;;;;;;;;29.30;89.00;;;;;;1882301;75;20191;-91
2021/07/28 15:18:16;;;;;;;;;;;29.30;89.90;;;;;;1892637;75;20181;-94